createdAt,value
2019-01-19T00:01:48.307Z,13.27
2019-01-19T00:04:22.403Z,15.87
2019-01-19T00:06:56.774Z,17.00
2019-01-19T00:09:47.702Z,17.87
2019-01-19T00:12:28.304Z,17.43
2019-01-19T00:14:57.202Z,14.87
2019-01-19T00:17:43.743Z,16.03
2019-01-19T00:20:45.541Z,14.40
2019-01-19T00:23:32.108Z,13.00
2019-01-19T00:26:18.715Z,15.13
2019-01-19T00:29:11.278Z,19.47
2019-01-19T00:31:45.782Z,15.33
2019-01-19T00:34:33.975Z,16.20
2019-01-19T00:37:02.787Z,13.63
2019-01-19T00:39:50.928Z,15.40
2019-01-19T00:42:28.681Z,17.83
2019-01-19T00:45:15.274Z,18.03
2019-01-19T00:47:52.657Z,20.37
2019-01-19T00:50:54.624Z,13.70
2019-01-19T00:53:38.230Z,12.07
2019-01-19T00:56:29.218Z,14.00
2019-01-19T00:59:00.851Z,12.70
2019-01-19T01:01:47.663Z,14.30
2019-01-19T01:04:25.260Z,15.97
2019-01-19T01:07:18.290Z,17.10
2019-01-19T01:09:52.782Z,15.43
2019-01-19T01:12:36.167Z,16.23
2019-01-19T01:15:13.609Z,17.00
2019-01-19T01:17:43.426Z,13.57
2019-01-19T01:20:32.412Z,14.63
2019-01-19T01:23:19.070Z,17.17
2019-01-19T01:26:08.697Z,13.47
2019-01-19T01:28:55.477Z,16.20
2019-01-19T01:31:45.227Z,18.43
2019-01-19T01:34:16.945Z,13.63
2019-01-19T01:36:54.754Z,13.47
2019-01-19T01:39:35.460Z,15.20
2019-01-19T01:42:09.870Z,14.17
2019-01-19T01:44:50.065Z,13.77
2019-01-19T01:47:33.366Z,16.47
2019-01-19T01:50:05.140Z,18.23
2019-01-19T01:52:36.839Z,21.80
2019-01-19T01:55:08.500Z,20.43
2019-01-19T01:57:37.206Z,16.67
2019-01-19T02:00:20.746Z,19.73
2019-01-19T02:03:03.706Z,25.47
2019-01-19T02:05:40.264Z,19.50
2019-01-19T02:08:09.018Z,15.63
2019-01-19T02:10:58.464Z,14.27
2019-01-19T02:13:50.907Z,14.03
2019-01-19T02:16:37.559Z,15.87
2019-01-19T02:19:30.341Z,13.27
2019-01-19T02:22:13.467Z,13.10
2019-01-19T02:24:59.834Z,17.27
2019-01-19T02:27:31.396Z,13.80
2019-01-19T02:30:03.082Z,14.87
2019-01-19T02:32:46.511Z,11.77
2019-01-19T02:35:30.187Z,11.47
2019-01-19T02:38:10.649Z,17.10
2019-01-19T02:40:48.484Z,13.30
2019-01-19T02:43:40.827Z,16.13
2019-01-19T02:46:21.059Z,14.03
2019-01-19T02:48:58.278Z,13.40
2019-01-19T02:51:42.007Z,14.10
2019-01-19T02:54:48.291Z,11.80
2019-01-19T02:57:25.459Z,13.13
2019-01-19T03:00:08.821Z,11.73
2019-01-19T03:02:52.447Z,13.27
2019-01-19T03:05:24.126Z,16.20
2019-01-19T03:07:55.784Z,14.10
2019-01-19T03:10:39.526Z,12.60
2019-01-19T03:13:13.803Z,13.33
2019-01-19T03:16:19.802Z,13.53
2019-01-19T03:18:51.602Z,13.93
2019-01-19T03:21:43.509Z,14.93
2019-01-19T03:24:24.074Z,11.00
2019-01-19T03:26:58.227Z,12.17
2019-01-19T03:29:35.448Z,11.90
2019-01-19T03:32:12.599Z,12.27
2019-01-19T03:34:50.239Z,12.27
2019-01-19T03:37:29.530Z,11.83
2019-01-19T03:40:18.063Z,13.07
2019-01-19T03:43:05.926Z,12.33
2019-01-19T03:46:12.074Z,11.00
2019-01-19T03:48:49.790Z,9.63
2019-01-19T03:51:24.206Z,11.87
2019-01-19T03:54:07.541Z,10.23
2019-01-19T03:56:39.436Z,10.57
2019-01-19T03:59:11.018Z,12.27
2019-01-19T04:01:58.994Z,12.87
2019-01-19T04:04:42.908Z,12.47
2019-01-19T04:07:29.109Z,15.40
2019-01-19T04:10:00.829Z,11.47
2019-01-19T04:12:38.320Z,11.03
2019-01-19T04:15:12.671Z,11.40
2019-01-19T04:17:56.325Z,11.07
2019-01-19T04:20:56.890Z,12.83
2019-01-19T04:23:25.524Z,12.17
2019-01-19T04:25:57.181Z,15.97
2019-01-19T04:28:25.786Z,10.60
2019-01-19T04:30:54.387Z,13.80
2019-01-19T04:33:22.982Z,12.30
2019-01-19T04:35:51.929Z,15.40
2019-01-19T04:38:20.689Z,12.63
2019-01-19T04:40:49.374Z,12.97
2019-01-19T04:43:18.557Z,12.73
2019-01-19T04:45:47.135Z,12.80
2019-01-19T04:48:17.428Z,13.07
2019-01-19T04:50:46.085Z,19.30
2019-01-19T04:53:14.672Z,12.60
2019-01-19T04:55:43.258Z,10.73
2019-01-19T04:58:11.968Z,13.87
2019-01-19T05:00:40.587Z,12.00
2019-01-19T05:03:09.397Z,10.53
2019-01-19T05:05:38.048Z,11.10
2019-01-19T05:08:06.850Z,11.03
2019-01-19T05:10:35.523Z,9.33
2019-01-19T05:13:04.362Z,10.70
2019-01-19T05:15:33.128Z,11.10
2019-01-19T05:18:02.228Z,13.07
2019-01-19T05:20:30.895Z,12.43
2019-01-19T05:22:59.478Z,12.70
2019-01-19T05:25:28.263Z,11.93
2019-01-19T05:27:56.902Z,10.53
2019-01-19T05:30:25.515Z,11.33
2019-01-19T05:33:13.552Z,10.30
2019-01-19T05:35:42.152Z,10.37
2019-01-19T05:38:10.793Z,12.00
2019-01-19T05:40:39.364Z,11.70
2019-01-19T05:43:08.020Z,11.53
2019-01-19T05:45:36.678Z,10.13
2019-01-19T05:48:05.343Z,10.10
2019-01-19T05:50:33.996Z,11.37
2019-01-19T05:53:02.606Z,13.27
2019-01-19T05:55:31.251Z,11.53
2019-01-19T05:57:59.908Z,13.50
2019-01-19T06:00:32.966Z,9.73
2019-01-19T06:03:01.737Z,10.60
2019-01-19T06:05:30.342Z,10.10
2019-01-19T06:07:59.035Z,11.23
2019-01-19T06:10:27.572Z,11.07
2019-01-19T06:12:56.170Z,13.57
2019-01-19T06:15:24.928Z,13.67
2019-01-19T06:17:53.660Z,13.03
2019-01-19T06:20:22.334Z,10.00
2019-01-19T06:22:50.920Z,11.37
2019-01-19T06:25:19.561Z,12.23
2019-01-19T06:27:48.134Z,10.50
2019-01-19T06:30:22.125Z,12.10
2019-01-19T06:32:50.712Z,11.47
2019-01-19T06:35:19.334Z,10.97
2019-01-19T06:37:48.255Z,11.70
2019-01-19T06:40:18.714Z,11.70
2019-01-19T06:42:47.418Z,12.77
2019-01-19T06:45:18.550Z,13.73
2019-01-19T06:47:47.099Z,11.23
2019-01-19T06:50:17.421Z,10.03
2019-01-19T06:52:46.197Z,11.70
2019-01-19T06:55:17.902Z,11.53
2019-01-19T06:57:46.524Z,11.00
2019-01-19T07:00:17.431Z,12.57
2019-01-19T07:02:46.147Z,9.67
2019-01-19T07:05:15.145Z,11.97
2019-01-19T07:07:43.828Z,14.40
2019-01-19T07:10:18.131Z,10.17
2019-01-19T07:12:46.763Z,14.93
2019-01-19T07:15:15.847Z,11.20
2019-01-19T07:17:44.515Z,17.17
2019-01-19T07:20:15.810Z,15.63
2019-01-19T07:22:44.410Z,14.67
2019-01-19T07:25:13.529Z,15.97
2019-01-19T07:27:42.186Z,13.03
2019-01-19T07:30:13.550Z,13.73
2019-01-19T07:32:42.480Z,13.00
2019-01-19T07:35:11.193Z,16.43
2019-01-19T07:37:40.105Z,14.50
2019-01-19T07:40:12.227Z,16.90
2019-01-19T07:42:42.346Z,15.70
2019-01-19T07:45:13.469Z,12.80
2019-01-19T07:47:43.435Z,12.97
2019-01-19T07:50:14.835Z,13.40
2019-01-19T07:52:43.654Z,21.50
2019-01-19T07:55:17.424Z,11.17
2019-01-19T07:57:46.367Z,15.90
2019-01-19T08:00:26.878Z,18.63
2019-01-19T08:02:55.413Z,14.67
2019-01-19T08:05:23.974Z,16.03
2019-01-19T08:07:52.710Z,14.23
2019-01-19T08:10:22.168Z,14.63
2019-01-19T08:12:50.774Z,13.93
2019-01-19T08:15:29.362Z,13.37
2019-01-19T08:17:58.614Z,11.60
2019-01-19T08:20:27.222Z,14.43
2019-01-19T08:22:55.892Z,13.03
2019-01-19T08:25:24.606Z,12.60
2019-01-19T08:27:53.235Z,10.93
2019-01-19T08:30:24.178Z,10.60
2019-01-19T08:32:52.973Z,12.87
2019-01-19T08:35:21.832Z,13.80
2019-01-19T08:37:50.692Z,15.13
2019-01-19T08:40:22.039Z,12.00
2019-01-19T08:42:52.386Z,14.30
2019-01-19T08:45:21.242Z,11.27
2019-01-19T08:47:49.850Z,14.30
2019-01-19T08:50:18.430Z,12.57
2019-01-19T08:53:06.490Z,11.53
2019-01-19T08:55:35.189Z,14.77
2019-01-19T08:58:04.337Z,11.87
2019-01-19T09:00:32.954Z,15.47
2019-01-19T09:03:01.644Z,16.43
2019-01-19T09:05:30.318Z,13.37
2019-01-19T09:08:00.721Z,16.50
2019-01-19T09:10:29.422Z,11.83
2019-01-19T09:12:57.993Z,20.23
2019-01-19T09:15:27.140Z,17.13
2019-01-19T09:17:55.969Z,17.90
2019-01-19T09:20:24.766Z,16.33
2019-01-19T09:22:54.964Z,16.90
2019-01-19T09:25:43.002Z,17.03
2019-01-19T09:28:11.651Z,18.00
2019-01-19T09:30:40.290Z,19.20
2019-01-19T09:33:08.887Z,24.70
2019-01-19T09:35:37.490Z,26.17
2019-01-19T09:38:06.051Z,22.47
2019-01-19T09:40:35.003Z,22.60
2019-01-19T09:43:03.626Z,26.17
2019-01-19T09:45:34.051Z,18.87
2019-01-19T09:48:21.987Z,21.23
2019-01-19T09:50:52.662Z,17.90
2019-01-19T09:53:21.039Z,26.37
2019-01-19T09:55:49.795Z,15.97
2019-01-19T09:58:18.422Z,20.50
2019-01-19T10:00:47.360Z,17.97
2019-01-19T10:03:16.039Z,15.43
2019-01-19T10:05:44.827Z,17.53
2019-01-19T10:08:13.665Z,16.47
2019-01-19T10:10:42.998Z,17.60
2019-01-19T10:13:11.846Z,15.10
2019-01-19T10:15:40.391Z,18.90
2019-01-19T10:18:09.060Z,13.73
2019-01-19T10:20:37.645Z,16.67
2019-01-19T10:23:06.351Z,16.67
2019-01-19T10:25:35.186Z,16.07
2019-01-19T10:28:03.955Z,17.23
2019-01-19T10:30:32.629Z,18.83
2019-01-19T10:33:01.294Z,15.37
2019-01-19T10:35:33.060Z,19.83
2019-01-19T10:38:01.506Z,15.60
2019-01-19T10:40:30.120Z,16.27
2019-01-19T10:42:58.778Z,16.30
2019-01-19T10:45:29.128Z,15.80
2019-01-19T10:48:19.157Z,15.30
2019-01-19T10:50:47.704Z,15.83
2019-01-19T10:53:16.447Z,16.17
2019-01-19T10:55:45.142Z,14.80
2019-01-19T10:58:13.790Z,17.27
2019-01-19T11:00:42.346Z,15.77
2019-01-19T11:03:11.159Z,22.93
2019-01-19T11:05:39.720Z,21.10
2019-01-19T11:08:10.355Z,24.00
2019-01-19T11:10:39.311Z,15.77
2019-01-19T11:13:08.337Z,18.77
2019-01-19T11:15:36.948Z,16.63
2019-01-19T11:18:06.361Z,18.03
2019-01-19T11:20:35.114Z,16.87
2019-01-19T11:23:03.934Z,22.07
2019-01-19T11:25:32.590Z,16.97
2019-01-19T11:28:20.607Z,17.37
2019-01-19T11:30:49.218Z,16.77
2019-01-19T11:33:17.847Z,19.13
2019-01-19T11:35:47.270Z,17.93
2019-01-19T11:38:20.023Z,14.67
2019-01-19T11:40:46.322Z,17.63
2019-01-19T11:43:14.908Z,18.30
2019-01-19T11:45:43.710Z,18.73
2019-01-19T11:48:12.384Z,14.97
2019-01-19T11:50:42.497Z,18.97
2019-01-19T11:53:11.216Z,17.37
2019-01-19T11:55:40.098Z,17.17
2019-01-19T11:58:12.044Z,13.83
2019-01-19T12:00:41.139Z,14.80
2019-01-19T12:03:10.784Z,20.20
2019-01-19T12:05:40.223Z,15.70
2019-01-19T12:08:09.977Z,16.03
2019-01-19T12:10:38.671Z,16.77
2019-01-19T12:13:07.693Z,21.17
2019-01-19T12:15:36.483Z,15.17
2019-01-19T12:18:05.426Z,15.80
2019-01-19T12:20:37.046Z,14.17
2019-01-19T12:23:08.139Z,16.13
2019-01-19T12:25:36.578Z,22.17
2019-01-19T12:28:05.776Z,13.10
2019-01-19T12:30:35.735Z,14.63
2019-01-19T12:33:05.290Z,16.47
2019-01-19T12:35:36.757Z,15.07
2019-01-19T12:38:05.476Z,14.53
2019-01-19T12:40:34.438Z,17.37
2019-01-19T12:43:06.452Z,13.80
2019-01-19T12:45:41.429Z,13.87
2019-01-19T12:48:11.761Z,18.10
2019-01-19T12:50:40.849Z,15.17
2019-01-19T12:53:09.701Z,15.67
2019-01-19T12:55:39.614Z,13.70
2019-01-19T12:58:09.686Z,16.50
2019-01-19T13:00:38.462Z,17.60
2019-01-19T13:03:08.268Z,19.17
2019-01-19T13:05:53.943Z,16.23
2019-01-19T13:08:26.518Z,14.60
2019-01-19T13:11:04.413Z,15.73
2019-01-19T13:13:34.686Z,14.87
2019-01-19T13:16:27.525Z,16.80
2019-01-19T13:19:29.345Z,15.47
2019-01-19T13:22:12.939Z,20.50
2019-01-19T13:24:47.289Z,15.83
2019-01-19T13:27:28.095Z,15.03
2019-01-19T13:30:05.779Z,18.60
2019-01-19T13:32:43.324Z,16.37
2019-01-19T13:35:40.766Z,16.30
2019-01-19T13:38:42.094Z,17.13
2019-01-19T13:41:45.509Z,16.73
2019-01-19T13:44:28.711Z,15.70
2019-01-19T13:47:16.702Z,16.40
2019-01-19T13:49:57.269Z,14.13
2019-01-19T13:52:46.641Z,17.07
2019-01-19T13:55:50.345Z,18.10
2019-01-19T13:58:34.130Z,16.93
2019-01-19T14:01:40.725Z,15.33
2019-01-19T14:04:24.400Z,16.07
2019-01-19T14:06:58.764Z,18.37
2019-01-19T14:09:43.964Z,14.87
2019-01-19T14:12:24.799Z,15.50
2019-01-19T14:15:02.398Z,16.83
2019-01-19T14:17:45.793Z,20.83
2019-01-19T14:20:37.060Z,15.80
2019-01-19T14:23:44.320Z,13.77
2019-01-19T14:26:15.877Z,16.73
2019-01-19T14:29:14.322Z,14.33
2019-01-19T14:32:05.432Z,16.00
2019-01-19T14:34:37.108Z,16.90
2019-01-19T14:37:11.354Z,13.67
2019-01-19T14:39:58.468Z,15.07
2019-01-19T14:42:52.787Z,16.83
2019-01-19T14:45:42.688Z,13.47
2019-01-19T14:48:32.446Z,16.40
2019-01-19T14:51:09.247Z,15.10
2019-01-19T14:53:57.361Z,14.33
2019-01-19T14:56:34.908Z,13.77
2019-01-19T14:59:06.593Z,14.30
2019-01-19T15:01:40.961Z,15.37
2019-01-19T15:04:18.237Z,16.43
2019-01-19T15:07:14.171Z,20.00
2019-01-19T15:09:53.272Z,15.03
2019-01-19T15:12:36.198Z,17.30
2019-01-19T15:15:07.873Z,16.67
2019-01-19T15:18:03.965Z,20.53
2019-01-19T15:20:50.847Z,18.17
2019-01-19T15:23:34.411Z,15.43
2019-01-19T15:26:33.158Z,16.63
2019-01-19T15:29:43.775Z,13.50
2019-01-19T15:32:24.190Z,14.73
2019-01-19T15:35:29.044Z,15.70
2019-01-19T15:38:15.572Z,14.50
2019-01-19T15:40:59.029Z,16.07
2019-01-19T15:43:33.603Z,13.47
2019-01-19T15:46:34.086Z,15.83
2019-01-19T15:49:08.559Z,13.37
2019-01-19T15:51:58.055Z,15.23
2019-01-19T15:54:46.246Z,14.57
2019-01-19T15:57:51.264Z,15.23
2019-01-19T16:00:25.664Z,20.17
2019-01-19T16:03:06.138Z,16.97
2019-01-19T16:09:18.348Z,14.03
2019-01-19T16:12:04.052Z,16.17
2019-01-19T16:14:41.115Z,18.67
2019-01-19T16:17:24.801Z,17.90
2019-01-19T16:20:14.498Z,15.80
2019-01-19T16:22:55.110Z,15.27
2019-01-19T16:25:44.790Z,15.00
2019-01-19T16:28:33.074Z,15.30
2019-01-19T16:31:31.761Z,13.03
2019-01-19T16:34:06.103Z,13.47
2019-01-19T16:36:51.501Z,16.40
2019-01-19T16:39:42.328Z,16.37
2019-01-19T16:42:16.654Z,16.73
2019-01-19T16:45:14.085Z,13.67
2019-01-19T16:48:06.784Z,16.47
2019-01-19T16:50:38.490Z,17.40
2019-01-19T16:53:22.307Z,22.63
2019-01-19T16:55:53.939Z,17.13
2019-01-19T16:58:36.995Z,20.27
2019-01-19T17:01:26.845Z,18.17
2019-01-19T17:04:11.044Z,17.47
2019-01-19T17:06:48.499Z,21.77
2019-01-19T17:09:33.106Z,19.80
2019-01-19T17:12:05.091Z,17.43
2019-01-19T17:14:51.944Z,17.43
2019-01-19T17:17:35.641Z,17.97
2019-01-19T17:20:28.361Z,21.43
2019-01-19T17:23:05.630Z,23.50
2019-01-19T17:25:41.836Z,18.80
2019-01-19T17:28:25.307Z,18.20
2019-01-19T17:31:05.431Z,20.20
2019-01-19T17:33:46.236Z,21.73
2019-01-19T17:36:35.746Z,21.97
2019-01-19T17:39:26.651Z,20.50
2019-01-19T17:42:01.240Z,21.50
2019-01-19T17:44:35.818Z,20.37
2019-01-19T17:47:13.602Z,20.40
2019-01-19T17:49:54.034Z,22.20
2019-01-19T17:52:40.738Z,26.30
2019-01-19T17:55:23.922Z,21.90
2019-01-19T17:58:21.526Z,22.50
2019-01-19T18:01:11.822Z,19.70
2019-01-19T18:03:49.386Z,20.40
2019-01-19T18:06:23.835Z,22.97
2019-01-19T18:09:07.486Z,22.73
2019-01-19T18:11:41.882Z,21.43
2019-01-19T18:14:31.729Z,25.90
2019-01-19T18:17:20.127Z,27.00
2019-01-19T18:20:12.832Z,28.67
2019-01-19T18:22:53.441Z,23.30
2019-01-19T18:25:27.998Z,26.07
2019-01-19T18:28:15.089Z,26.63
2019-01-19T18:30:47.151Z,28.23
2019-01-19T18:33:24.347Z,31.90
2019-01-19T18:35:55.952Z,31.07
2019-01-19T18:38:30.483Z,28.70
2019-01-19T18:41:07.889Z,29.40
2019-01-19T18:43:48.286Z,28.67
2019-01-19T18:46:22.644Z,25.47
2019-01-19T18:49:06.004Z,28.97
2019-01-19T18:51:55.498Z,30.07
2019-01-19T18:54:48.174Z,30.07
2019-01-19T18:57:22.819Z,28.63
2019-01-19T19:00:00.536Z,33.93
2019-01-19T19:02:52.049Z,36.80
2019-01-19T19:05:41.754Z,36.47
2019-01-19T19:08:28.386Z,36.37
2019-01-19T19:11:27.290Z,35.30
2019-01-19T19:14:01.808Z,39.53
2019-01-19T19:16:51.024Z,40.80
2019-01-19T19:19:34.411Z,38.80
2019-01-19T19:22:18.338Z,36.80
2019-01-19T19:25:14.045Z,40.13
2019-01-19T19:28:09.893Z,34.97
2019-01-19T19:30:56.574Z,30.57
2019-01-19T19:33:46.283Z,34.20
2019-01-19T19:36:29.837Z,31.47
2019-01-19T19:39:01.463Z,31.43
2019-01-19T19:41:39.065Z,34.63
2019-01-19T19:44:19.475Z,32.37
2019-01-19T19:46:54.095Z,36.97
2019-01-19T19:49:40.145Z,43.10
2019-01-19T19:52:08.813Z,40.13
2019-01-19T19:54:37.550Z,46.17
2019-01-19T19:57:06.685Z,39.10
2019-01-19T19:59:35.391Z,33.40
2019-01-19T20:02:04.244Z,34.07
2019-01-19T20:04:32.922Z,31.33
2019-01-19T20:07:01.719Z,33.67
2019-01-19T20:09:30.368Z,34.93
2019-01-19T20:11:59.888Z,36.10
2019-01-19T20:14:28.594Z,44.97
2019-01-19T20:16:57.158Z,47.17
2019-01-19T20:19:27.742Z,48.43
2019-01-19T20:21:56.163Z,44.60
2019-01-19T20:24:24.855Z,35.37
2019-01-19T20:26:53.414Z,38.93
2019-01-19T20:29:22.078Z,38.53
2019-01-19T20:31:50.671Z,42.47
2019-01-19T20:34:19.267Z,37.77
2019-01-19T20:36:47.985Z,42.80
2019-01-19T20:39:16.664Z,42.27
2019-01-19T20:41:46.621Z,50.93
2019-01-19T20:44:15.223Z,44.80
2019-01-19T20:46:43.823Z,43.60
2019-01-19T20:49:12.391Z,43.93
2019-01-19T20:51:40.998Z,36.00
2019-01-19T20:54:09.619Z,35.97
2019-01-19T20:56:38.185Z,33.60
2019-01-19T20:59:06.950Z,35.03
2019-01-19T21:01:35.519Z,35.53
2019-01-19T21:04:04.286Z,36.57
2019-01-19T21:06:32.898Z,34.87
2019-01-19T21:09:01.516Z,33.57
2019-01-19T21:11:30.106Z,37.80
2019-01-19T21:13:58.960Z,33.57
2019-01-19T21:16:29.526Z,31.77
2019-01-19T21:18:58.037Z,39.40
2019-01-19T21:21:26.622Z,34.30
2019-01-19T21:23:55.329Z,31.43
2019-01-19T21:26:23.878Z,34.27
2019-01-19T21:28:52.534Z,32.60
2019-01-19T21:31:21.256Z,33.00
2019-01-19T21:33:49.842Z,34.57
2019-01-19T21:36:18.470Z,36.60
2019-01-19T21:38:47.178Z,33.50
2019-01-19T21:41:15.744Z,38.80
2019-01-19T21:43:44.382Z,43.13
2019-01-19T21:46:13.044Z,38.67
2019-01-19T21:48:41.627Z,39.70
2019-01-19T21:51:10.282Z,39.33
2019-01-19T21:53:39.182Z,40.60
2019-01-19T21:56:07.742Z,42.40
2019-01-19T21:58:36.442Z,37.33
2019-01-19T22:01:05.680Z,31.40
2019-01-19T22:03:34.566Z,35.43
2019-01-19T22:06:03.694Z,36.20
2019-01-19T22:08:32.248Z,34.37
2019-01-19T22:11:00.850Z,29.10
2019-01-19T22:13:29.340Z,34.73
2019-01-19T22:15:57.944Z,30.10
2019-01-19T22:18:26.590Z,32.57
2019-01-19T22:20:55.195Z,35.97
2019-01-19T22:23:23.824Z,35.17
2019-01-19T22:25:52.362Z,32.23
2019-01-19T22:28:20.961Z,36.70
2019-01-19T22:30:49.543Z,32.10
2019-01-19T22:33:18.642Z,29.33
2019-01-19T22:35:47.366Z,32.37
2019-01-19T22:38:15.974Z,34.93
2019-01-19T22:40:44.514Z,29.73
2019-01-19T22:43:13.916Z,30.40
2019-01-19T22:45:43.490Z,36.40
2019-01-19T22:48:12.154Z,31.90
2019-01-19T22:50:40.945Z,32.87
2019-01-19T22:53:09.501Z,30.90
2019-01-19T22:55:38.083Z,29.67
2019-01-19T22:58:06.719Z,37.50
2019-01-19T23:00:40.046Z,31.73
2019-01-19T23:03:08.778Z,36.40
2019-01-19T23:05:40.399Z,37.10
2019-01-19T23:08:09.099Z,37.37
2019-01-19T23:10:37.759Z,38.30
2019-01-19T23:13:06.606Z,39.73
2019-01-19T23:15:35.205Z,38.73
2019-01-19T23:18:03.976Z,36.87
2019-01-19T23:20:32.540Z,43.13
2019-01-19T23:23:01.447Z,42.43
2019-01-19T23:25:29.994Z,36.43
2019-01-19T23:27:58.751Z,36.70
2019-01-19T23:30:27.486Z,34.93
2019-01-19T23:32:56.119Z,35.77
2019-01-19T23:35:24.881Z,38.57
2019-01-19T23:37:53.489Z,36.67
2019-01-19T23:40:22.125Z,34.37
2019-01-19T23:42:50.700Z,36.27
2019-01-19T23:45:19.254Z,38.43
2019-01-19T23:47:48.042Z,40.40
2019-01-19T23:50:16.726Z,42.53
2019-01-19T23:52:45.310Z,36.67
2019-01-19T23:55:13.969Z,43.37
2019-01-19T23:57:42.628Z,38.03
